Time;durP1;ratioP1;P1;durP2;ratioP2;P2;SDS_P1;SDS_P2;PMS_P1;PMS_P2;Temp;Humidity;BMP_temperature;BMP_pressure;BME280_temperature;BME280_humidity;BME280_pressure;Samples;Min_cycle;Max_cycle;Signal;HPM_P1;HPM_P2
2021/05/25 00:01:00;;;;;;;32.67;22.30;;;;;;;;;;6156315;28;20085;-71
2021/05/25 00:04:02;;;;;;;34.33;22.88;;;;;;;;;;6154346;28;20122;-73
2021/05/25 00:07:03;;;;;;;32.58;23.25;;;;;;;;;;6161775;28;20155;-70
2021/05/25 00:10:06;;;;;;;31.27;21.90;;;;;;;;;;6158111;28;20397;-71
2021/05/25 00:13:08;;;;;;;33.33;23.00;;;;;;;;;;6162095;28;20056;-71
2021/05/25 00:16:09;;;;;;;33.40;23.17;;;;;;;;;;6160781;28;20043;-71
2021/05/25 00:19:10;;;;;;;35.67;23.77;;;;;;;;;;6154663;28;20046;-73
2021/05/25 00:22:13;;;;;;;29.65;21.33;;;;;;;;;;6168312;28;20075;-71
2021/05/25 00:25:17;;;;;;;33.25;22.75;;;;;;;;;;6165804;28;20556;-72
2021/05/25 00:28:20;;;;;;;31.33;21.48;;;;;;;;;;6163150;28;20054;-70
2021/05/25 00:31:21;;;;;;;30.20;20.67;;;;;;;;;;6153132;28;20054;-71
2021/05/25 00:34:22;;;;;;;30.27;21.10;;;;;;;;;;6168326;28;20138;-70
2021/05/25 00:37:23;;;;;;;30.25;20.50;;;;;;;;;;6167269;28;20398;-75
2021/05/25 00:40:25;;;;;;;30.48;21.20;;;;;;;;;;6161103;28;20150;-76
2021/05/25 00:43:28;;;;;;;31.90;20.48;;;;;;;;;;6166374;28;20104;-70
2021/05/25 00:46:29;;;;;;;33.28;23.00;;;;;;;;;;6167259;28;20050;-70
2021/05/25 00:49:30;;;;;;;33.17;21.52;;;;;;;;;;6153834;28;20106;-70
2021/05/25 00:52:31;;;;;;;31.08;21.63;;;;;;;;;;6154542;28;20205;-76
2021/05/25 00:55:36;;;;;;;36.10;23.45;;;;;;;;;;6160004;28;20859;-70
2021/05/25 00:58:38;;;;;;;33.03;22.98;;;;;;;;;;6166406;28;20687;-74
2021/05/25 01:01:39;;;;;;;33.05;22.50;;;;;;;;;;6169305;28;20054;-76
2021/05/25 01:04:40;;;;;;;37.78;23.88;;;;;;;;;;6475898;23;20080;-72
2021/05/25 01:07:41;;;;;;;35.53;23.33;;;;;;;;;;6182090;28;20038;-69
2021/05/25 01:10:48;;;;;;;35.40;23.48;;;;;;;;;;6214020;28;20060;-69
2021/05/25 01:13:52;;;;;;;42.88;26.25;;;;;;;;;;6213096;28;20137;-70
2021/05/25 01:16:53;;;;;;;43.63;28.20;;;;;;;;;;6212104;28;20042;-68
2021/05/25 01:19:54;;;;;;;41.75;28.15;;;;;;;;;;6207475;28;20133;-70
2021/05/25 01:22:57;;;;;;;44.95;29.13;;;;;;;;;;6213002;28;20092;-68
2021/05/25 01:25:58;;;;;;;45.83;28.52;;;;;;;;;;6214706;28;20434;-68
2021/05/25 01:28:59;;;;;;;43.90;28.58;;;;;;;;;;6214064;28;20132;-68
2021/05/25 01:32:00;;;;;;;44.75;29.13;;;;;;;;;;6212098;28;20046;-68
2021/05/25 01:35:05;;;;;;;44.28;27.42;;;;;;;;;;6213815;28;20076;-69
2021/05/25 01:38:08;;;;;;;41.60;27.85;;;;;;;;;;6210870;28;20523;-69
2021/05/25 01:41:10;;;;;;;40.55;26.10;;;;;;;;;;6200074;28;20047;-68
2021/05/25 01:44:11;;;;;;;42.08;26.10;;;;;;;;;;6187752;28;20048;-68
2021/05/25 01:47:12;;;;;;;40.92;25.45;;;;;;;;;;6217269;28;20167;-68
2021/05/25 01:50:16;;;;;;;40.50;25.70;;;;;;;;;;6209895;28;20050;-68
2021/05/25 01:53:19;;;;;;;40.08;25.88;;;;;;;;;;6215504;28;20054;-69
2021/05/25 01:56:21;;;;;;;42.13;25.43;;;;;;;;;;6216611;28;20058;-68
2021/05/25 01:59:22;;;;;;;40.45;25.67;;;;;;;;;;6215448;28;20120;-68
2021/05/25 02:02:23;;;;;;;39.88;26.50;;;;;;;;;;6213911;28;20139;-70
2021/05/25 02:05:24;;;;;;;41.80;27.33;;;;;;;;;;6215614;28;20050;-71
2021/05/25 02:08:26;;;;;;;41.67;27.30;;;;;;;;;;6213448;28;20046;-67
2021/05/25 02:11:28;;;;;;;42.83;27.15;;;;;;;;;;6213231;28;20116;-70
2021/05/25 02:14:29;;;;;;;39.38;26.08;;;;;;;;;;6214105;28;20049;-68
2021/05/25 02:17:30;;;;;;;41.95;26.23;;;;;;;;;;6215110;28;20137;-70
2021/05/25 02:20:31;;;;;;;42.45;26.80;;;;;;;;;;6213818;28;20037;-70
2021/05/25 02:23:33;;;;;;;43.78;27.63;;;;;;;;;;6212617;28;20181;-70
2021/05/25 02:26:34;;;;;;;41.33;26.52;;;;;;;;;;6214128;28;20080;-68
2021/05/25 02:29:35;;;;;;;42.28;26.23;;;;;;;;;;6215596;28;20140;-69
2021/05/25 02:32:36;;;;;;;46.28;27.98;;;;;;;;;;6211764;28;20184;-69
2021/05/25 02:35:38;;;;;;;42.85;27.00;;;;;;;;;;6209417;28;20128;-68
2021/05/25 02:38:42;;;;;;;44.45;26.92;;;;;;;;;;6214888;28;20069;-68
2021/05/25 02:41:43;;;;;;;;;;;;;;;;;;6213800;28;20038;-70
2021/05/25 02:44:44;;;;;;;43.33;25.63;;;;;;;;;;6211648;28;19926;-69
2021/05/25 02:47:46;;;;;;;40.65;25.10;;;;;;;;;;6209923;28;20042;-68
2021/05/25 02:50:48;;;;;;;45.17;26.95;;;;;;;;;;6209744;28;20452;-68
2021/05/25 02:53:50;;;;;;;47.80;27.67;;;;;;;;;;6212107;28;20145;-70
2021/05/25 02:56:51;;;;;;;45.60;27.85;;;;;;;;;;6215753;28;20050;-70
2021/05/25 02:59:52;;;;;;;47.22;27.85;;;;;;;;;;6213724;28;20048;-68
2021/05/25 03:02:53;;;;;;;50.58;28.95;;;;;;;;;;6209798;28;20157;-69
2021/05/25 03:05:54;;;;;;;48.97;27.77;;;;;;;;;;6215017;28;20127;-69
2021/05/25 03:08:56;;;;;;;51.20;27.38;;;;;;;;;;6210730;28;20046;-68
2021/05/25 03:11:57;;;;;;;51.30;28.17;;;;;;;;;;6208608;28;20114;-67
2021/05/25 03:14:59;;;;;;;52.03;28.00;;;;;;;;;;6211817;28;20068;-68
2021/05/25 03:18:00;;;;;;;49.30;27.27;;;;;;;;;;6211146;28;20052;-70
2021/05/25 03:21:02;;;;;;;49.83;28.88;;;;;;;;;;6211364;28;20057;-70
2021/05/25 03:24:05;;;;;;;55.38;29.23;;;;;;;;;;6210757;28;20496;-68
2021/05/25 03:27:06;;;;;;;49.10;27.20;;;;;;;;;;6197983;28;20507;-68
2021/05/25 03:30:10;;;;;;;52.33;28.38;;;;;;;;;;6187834;28;20047;-67
2021/05/25 03:33:11;;;;;;;52.03;28.38;;;;;;;;;;6211921;28;20072;-70
2021/05/25 03:36:12;;;;;;;52.13;28.40;;;;;;;;;;6212390;28;20053;-67
2021/05/25 03:39:14;;;;;;;54.85;28.33;;;;;;;;;;6214460;28;20144;-69
2021/05/25 03:42:15;;;;;;;49.40;28.17;;;;;;;;;;6205433;28;20077;-68
2021/05/25 03:45:17;;;;;;;53.13;28.23;;;;;;;;;;6213490;28;20056;-68
2021/05/25 03:48:18;;;;;;;54.28;27.90;;;;;;;;;;6202674;28;20104;-70
2021/05/25 03:51:19;;;;;;;56.78;30.23;;;;;;;;;;6206355;28;20042;-67
2021/05/25 03:54:25;;;;;;;51.90;27.85;;;;;;;;;;6207200;28;20064;-68
2021/05/25 04:00:41;;;;;;;51.30;27.10;;;;;;;;;;6211041;28;20104;-68
2021/05/25 04:03:42;;;;;;;51.35;28.55;;;;;;;;;;6215387;28;20060;-69
2021/05/25 04:06:43;;;;;;;57.53;28.52;;;;;;;;;;6217315;28;20064;-68
2021/05/25 04:09:45;;;;;;;48.53;26.48;;;;;;;;;;6212244;28;20108;-69
2021/05/25 04:12:46;;;;;;;52.47;26.92;;;;;;;;;;6215161;28;20061;-68
2021/05/25 04:15:51;;;;;;;52.17;27.58;;;;;;;;;;6213116;28;20136;-70
2021/05/25 04:18:52;;;;;;;52.75;28.13;;;;;;;;;;6204868;28;20061;-68
2021/05/25 04:21:53;;;;;;;48.92;27.58;;;;;;;;;;6215025;28;20057;-68
2021/05/25 04:24:55;;;;;;;47.88;27.45;;;;;;;;;;6188613;28;20134;-68
2021/05/25 04:27:56;;;;;;;46.90;27.02;;;;;;;;;;6209837;28;20137;-68
2021/05/25 04:30:58;;;;;;;51.08;27.60;;;;;;;;;;6221511;28;20141;-68
2021/05/25 04:33:59;;;;;;;45.28;26.30;;;;;;;;;;6219085;28;20137;-68
2021/05/25 04:37:00;;;;;;;41.20;24.88;;;;;;;;;;6213706;28;20136;-69
2021/05/25 04:40:03;;;;;;;41.10;25.17;;;;;;;;;;6212397;28;20077;-69
2021/05/25 04:43:04;;;;;;;35.25;21.95;;;;;;;;;;6211922;28;20037;-68
2021/05/25 04:46:05;;;;;;;36.03;22.30;;;;;;;;;;6208182;28;20536;-69
2021/05/25 04:49:06;;;;;;;35.67;21.95;;;;;;;;;;6209731;28;20080;-69
2021/05/25 04:52:08;;;;;;;29.90;20.50;;;;;;;;;;6211419;28;20090;-69
2021/05/25 04:55:12;;;;;;;35.72;20.95;;;;;;;;;;6213247;28;20135;-71
2021/05/25 04:58:13;;;;;;;32.80;21.13;;;;;;;;;;6209683;28;20084;-69
2021/05/25 05:01:14;;;;;;;31.35;21.23;;;;;;;;;;6209080;28;20384;-69
2021/05/25 05:04:15;;;;;;;32.17;19.98;;;;;;;;;;6191549;28;20517;-69
2021/05/25 05:07:16;;;;;;;29.58;19.73;;;;;;;;;;6204591;28;20412;-69
2021/05/25 05:10:19;;;;;;;33.60;21.20;;;;;;;;;;6208840;28;20133;-70
2021/05/25 05:13:20;;;;;;;32.80;20.55;;;;;;;;;;6205428;28;20069;-68
2021/05/25 05:16:21;;;;;;;30.60;20.08;;;;;;;;;;6214694;28;20092;-69
2021/05/25 05:19:22;;;;;;;34.00;21.90;;;;;;;;;;6210694;28;20046;-69
2021/05/25 05:22:23;;;;;;;31.38;19.38;;;;;;;;;;6191207;28;20092;-71
2021/05/25 05:25:26;;;;;;;30.30;19.15;;;;;;;;;;6200151;28;20136;-68
2021/05/25 05:28:27;;;;;;;31.05;18.42;;;;;;;;;;6210164;28;20038;-69
2021/05/25 05:31:28;;;;;;;26.70;17.23;;;;;;;;;;6215332;28;20133;-69
2021/05/25 05:34:30;;;;;;;25.70;17.63;;;;;;;;;;6215419;28;20128;-68
2021/05/25 05:37:31;;;;;;;25.60;16.92;;;;;;;;;;6200464;28;20077;-69
2021/05/25 05:40:34;;;;;;;22.50;15.95;;;;;;;;;;6186327;28;21041;-70
2021/05/25 05:43:35;;;;;;;25.15;17.45;;;;;;;;;;6187723;28;20058;-69
2021/05/25 05:46:36;;;;;;;23.52;16.40;;;;;;;;;;6211726;28;20132;-72
2021/05/25 05:49:38;;;;;;;24.17;16.40;;;;;;;;;;6217328;28;20049;-69
2021/05/25 05:52:40;;;;;;;21.77;15.60;;;;;;;;;;6216927;28;20076;-69
2021/05/25 05:55:42;;;;;;;21.67;15.80;;;;;;;;;;6213934;28;20084;-69
2021/05/25 05:58:43;;;;;;;20.73;13.52;;;;;;;;;;6211683;28;20065;-71
2021/05/25 06:01:45;;;;;;;19.92;13.77;;;;;;;;;;6215248;28;20053;-70
2021/05/25 06:04:46;;;;;;;19.40;13.82;;;;;;;;;;6212508;28;20084;-69
2021/05/25 06:07:47;;;;;;;17.70;11.88;;;;;;;;;;6208833;28;20038;-71
2021/05/25 06:10:51;;;;;;;18.88;12.57;;;;;;;;;;6209188;28;20042;-70
2021/05/25 06:13:52;;;;;;;17.60;13.30;;;;;;;;;;6212660;28;20128;-70
2021/05/25 06:16:54;;;;;;;18.40;13.48;;;;;;;;;;6215541;28;20056;-70
2021/05/25 06:19:55;;;;;;;18.85;12.75;;;;;;;;;;6216210;28;20050;-70
2021/05/25 06:22:56;;;;;;;17.40;12.98;;;;;;;;;;6210735;28;20046;-73
2021/05/25 06:25:59;;;;;;;20.65;14.02;;;;;;;;;;6205634;28;20133;-74
2021/05/25 06:29:00;;;;;;;18.27;12.55;;;;;;;;;;6183089;28;20044;-74
2021/05/25 06:32:02;;;;;;;19.13;13.02;;;;;;;;;;6180870;28;20113;-72
2021/05/25 06:35:04;;;;;;;16.08;11.93;;;;;;;;;;6190390;28;20058;-71
2021/05/25 06:38:06;;;;;;;14.85;10.77;;;;;;;;;;6203850;28;20053;-70
2021/05/25 06:41:08;;;;;;;15.32;10.63;;;;;;;;;;6189069;28;20141;-71
2021/05/25 06:44:09;;;;;;;14.82;10.57;;;;;;;;;;6203932;28;20045;-70
2021/05/25 06:47:11;;;;;;;13.63;10.70;;;;;;;;;;6207499;28;20052;-71
2021/05/25 06:50:13;;;;;;;15.13;10.68;;;;;;;;;;6209317;28;20041;-71
2021/05/25 06:53:16;;;;;;;14.75;9.95;;;;;;;;;;6212668;28;20061;-74
2021/05/25 06:56:18;;;;;;;14.80;10.05;;;;;;;;;;6203482;28;20081;-72
2021/05/25 06:59:20;;;;;;;11.95;9.52;;;;;;;;;;6210734;28;20573;-72
2021/05/25 07:02:22;;;;;;;12.05;8.98;;;;;;;;;;6210289;28;20128;-74
2021/05/25 07:05:24;;;;;;;10.65;7.78;;;;;;;;;;6211968;28;20062;-73
2021/05/25 07:08:25;;;;;;;11.23;8.57;;;;;;;;;;6205253;28;20144;-73
2021/05/25 07:11:27;;;;;;;14.20;10.00;;;;;;;;;;6201411;28;20048;-73
2021/05/25 07:14:28;;;;;;;18.65;10.95;;;;;;;;;;6209926;28;20046;-81
2021/05/25 07:17:29;;;;;;;12.88;10.48;;;;;;;;;;6209255;28;20069;-74
2021/05/25 07:20:30;;;;;;;12.13;9.23;;;;;;;;;;6209496;28;20164;-71
2021/05/25 07:23:32;;;;;;;13.57;8.55;;;;;;;;;;6206897;28;20049;-72
2021/05/25 07:26:33;;;;;;;11.02;8.63;;;;;;;;;;6206827;28;20046;-72
2021/05/25 07:29:35;;;;;;;11.43;8.82;;;;;;;;;;6208288;28;20773;-72
2021/05/25 07:32:36;;;;;;;13.80;8.88;;;;;;;;;;6207103;28;20068;-72
2021/05/25 07:35:37;;;;;;;12.70;8.93;;;;;;;;;;6206289;28;20082;-72
2021/05/25 07:38:38;;;;;;;12.02;8.80;;;;;;;;;;6204928;28;20058;-72
2021/05/25 07:41:41;;;;;;;16.08;9.05;;;;;;;;;;6211562;28;20173;-70
2021/05/25 07:44:42;;;;;;;12.27;8.98;;;;;;;;;;6199120;28;20053;-69
2021/05/25 07:47:44;;;;;;;10.27;8.05;;;;;;;;;;6210004;28;20077;-70
2021/05/25 07:50:45;;;;;;;12.85;7.95;;;;;;;;;;6210437;28;20199;-70
2021/05/25 07:53:47;;;;;;;9.48;7.40;;;;;;;;;;6217061;28;20734;-71
2021/05/25 07:56:49;;;;;;;11.35;8.85;;;;;;;;;;6214427;28;20534;-70
2021/05/25 07:59:50;;;;;;;11.25;9.30;;;;;;;;;;6216341;28;20045;-70
2021/05/25 08:02:52;;;;;;;10.15;8.80;;;;;;;;;;6208372;28;20155;-70
2021/05/25 08:05:53;;;;;;;12.30;8.57;;;;;;;;;;6195047;28;20050;-71
2021/05/25 08:08:54;;;;;;;13.23;9.35;;;;;;;;;;6195872;28;20156;-70
2021/05/25 08:11:58;;;;;;;13.00;9.02;;;;;;;;;;6210174;28;20172;-72
2021/05/25 08:15:01;;;;;;;12.50;10.15;;;;;;;;;;6205003;28;20516;-70
2021/05/25 08:18:08;;;;;;;12.25;10.20;;;;;;;;;;6215374;28;20038;-74
2021/05/25 08:21:09;;;;;;;14.75;11.52;;;;;;;;;;6187950;28;20045;-70
2021/05/25 08:24:11;;;;;;;13.15;11.07;;;;;;;;;;6178250;28;20145;-72
2021/05/25 08:27:12;;;;;;;13.27;10.75;;;;;;;;;;6192856;28;20125;-71
2021/05/25 08:30:16;;;;;;;15.73;10.73;;;;;;;;;;6191528;28;20137;-70
2021/05/25 08:33:18;;;;;;;12.48;9.40;;;;;;;;;;6212422;28;20536;-70
2021/05/25 08:36:20;;;;;;;12.00;9.20;;;;;;;;;;6214873;28;20152;-71
2021/05/25 08:39:22;;;;;;;9.93;8.88;;;;;;;;;;6212175;28;20058;-70
2021/05/25 08:42:23;;;;;;;19.52;9.05;;;;;;;;;;6210474;28;20042;-70
2021/05/25 08:45:25;;;;;;;10.70;9.38;;;;;;;;;;6211852;28;20137;-70
2021/05/25 08:48:26;;;;;;;11.77;10.40;;;;;;;;;;6211726;28;20124;-71
2021/05/25 08:51:27;;;;;;;14.20;9.38;;;;;;;;;;6207741;28;20078;-68
2021/05/25 08:54:29;;;;;;;11.18;8.93;;;;;;;;;;6207804;28;20058;-69
2021/05/25 08:57:31;;;;;;;11.73;10.63;;;;;;;;;;6206654;28;20116;-72
2021/05/25 09:00:33;;;;;;;12.30;10.98;;;;;;;;;;6213926;28;20099;-70
2021/05/25 09:03:34;;;;;;;12.73;10.40;;;;;;;;;;6212525;28;20137;-70
2021/05/25 09:06:39;;;;;;;11.32;9.68;;;;;;;;;;6214099;28;20145;-71
2021/05/25 09:09:53;;;;;;;11.35;8.93;;;;;;;;;;6214315;28;20515;-70
2021/05/25 09:12:55;;;;;;;13.00;10.23;;;;;;;;;;6213611;28;20145;-69
2021/05/25 09:15:58;;;;;;;13.88;11.57;;;;;;;;;;6215814;28;20077;-70
2021/05/25 09:18:59;;;;;;;12.85;10.52;;;;;;;;;;6202488;28;20138;-68
2021/05/25 09:22:00;;;;;;;9.68;8.63;;;;;;;;;;6185336;28;20126;-71
2021/05/25 09:25:17;;;;;;;9.50;8.18;;;;;;;;;;6185006;28;20180;-74
2021/05/25 09:28:20;;;;;;;13.70;7.65;;;;;;;;;;6200692;28;20059;-74
2021/05/25 09:31:25;;;;;;;8.40;7.57;;;;;;;;;;6191818;28;20116;-71
2021/05/25 09:34:27;;;;;;;7.95;7.10;;;;;;;;;;6187212;28;20060;-70
2021/05/25 09:37:28;;;;;;;12.02;10.20;;;;;;;;;;6215049;28;20726;-70
2021/05/25 09:40:31;;;;;;;7.60;6.78;;;;;;;;;;6217073;28;20069;-71
2021/05/25 09:43:33;;;;;;;6.63;5.97;;;;;;;;;;6215627;28;20049;-71
2021/05/25 09:46:34;;;;;;;7.82;6.63;;;;;;;;;;6197783;28;20129;-70
2021/05/25 09:49:35;;;;;;;10.77;9.68;;;;;;;;;;6210649;28;20177;-70
2021/05/25 09:53:06;;;;;;;11.50;9.05;;;;;;;;;;6190802;28;20478;-70
2021/05/25 09:56:07;;;;;;;11.70;8.82;;;;;;;;;;6200414;28;20069;-70
2021/05/25 09:59:27;;;;;;;8.95;7.47;;;;;;;;;;6210430;28;20042;-72
2021/05/25 10:02:28;;;;;;;8.20;7.40;;;;;;;;;;6209091;28;20141;-70
2021/05/25 10:05:29;;;;;;;9.68;7.07;;;;;;;;;;6209444;28;20949;-67
2021/05/25 10:08:31;;;;;;;6.45;4.97;;;;;;;;;;6207009;28;20073;-70
2021/05/25 10:11:32;;;;;;;6.47;5.55;;;;;;;;;;6215031;28;20046;-70
2021/05/25 10:14:34;;;;;;;8.27;7.47;;;;;;;;;;6211276;28;20136;-69
2021/05/25 10:17:55;;;;;;;9.48;6.50;;;;;;;;;;6215042;28;20232;-72
2021/05/25 10:20:56;;;;;;;7.53;6.22;;;;;;;;;;6205154;28;20059;-68
2021/05/25 10:23:57;;;;;;;6.05;4.80;;;;;;;;;;6207535;28;20552;-72
2021/05/25 10:26:58;;;;;;;4.43;3.90;;;;;;;;;;6208685;28;20095;-72
2021/05/25 10:30:00;;;;;;;4.95;3.30;;;;;;;;;;6212303;28;20271;-69
2021/05/25 10:33:28;;;;;;;3.90;3.10;;;;;;;;;;6210130;28;20217;-70
2021/05/25 10:36:41;;;;;;;4.35;2.90;;;;;;;;;;6206445;28;20578;-73
2021/05/25 10:39:44;;;;;;;;;;;;;;;;;;6208824;28;20080;-68
2021/05/25 10:42:45;;;;;;;4.95;2.85;;;;;;;;;;6193759;28;19968;-71
2021/05/25 10:45:47;;;;;;;3.63;2.25;;;;;;;;;;6190953;28;20545;-71
2021/05/25 10:49:00;;;;;;;2.83;1.80;;;;;;;;;;6204041;28;20467;-68
2021/05/25 10:52:10;;;;;;;2.65;1.75;;;;;;;;;;6201793;28;20486;-69
2021/05/25 10:55:26;;;;;;;4.68;2.55;;;;;;;;;;6208567;28;20592;-71
2021/05/25 10:58:30;;;;;;;6.97;2.05;;;;;;;;;;6203029;28;20042;-71
2021/05/25 11:01:32;;;;;;;1.63;1.15;;;;;;;;;;6209965;28;20050;-74
2021/05/25 11:04:36;;;;;;;8.15;1.45;;;;;;;;;;6208496;28;20428;-72
2021/05/25 11:07:40;;;;;;;1.58;1.10;;;;;;;;;;6201433;28;20141;-72
2021/05/25 11:10:43;;;;;;;5.00;1.58;;;;;;;;;;6204437;28;20133;-74
2021/05/25 11:13:51;;;;;;;2.03;1.40;;;;;;;;;;6202384;28;20054;-74
2021/05/25 11:16:53;;;;;;;4.10;2.08;;;;;;;;;;6206050;28;20084;-73
2021/05/25 11:19:59;;;;;;;3.60;1.70;;;;;;;;;;6207543;28;20046;-71
2021/05/25 11:23:00;;;;;;;3.00;1.88;;;;;;;;;;6207115;28;20050;-71
2021/05/25 11:26:01;;;;;;;4.95;2.05;;;;;;;;;;6207831;28;20512;-73
2021/05/25 11:29:14;;;;;;;4.90;1.63;;;;;;;;;;6208995;28;20141;-73
2021/05/25 11:32:18;;;;;;;3.53;2.05;;;;;;;;;;6211513;28;20054;-74
2021/05/25 11:35:21;;;;;;;2.95;1.50;;;;;;;;;;6209850;28;20064;-79
2021/05/25 11:38:21;;;;;;;;;;;;;;;;;;6205717;28;20180;-72
2021/05/25 11:41:23;;;;;;;2.90;1.55;;;;;;;;;;6209533;28;19925;-72
2021/05/25 11:44:32;;;;;;;2.90;1.17;;;;;;;;;;6211909;28;20046;-72
2021/05/25 11:47:35;;;;;;;2.58;1.20;;;;;;;;;;6208940;28;20465;-72
2021/05/25 11:50:40;;;;;;;1.38;1.00;;;;;;;;;;6204700;28;20070;-72
2021/05/25 11:53:41;;;;;;;2.25;1.00;;;;;;;;;;6206346;28;20136;-72
2021/05/25 11:56:45;;;;;;;2.13;0.68;;;;;;;;;;6210047;28;20121;-73
2021/05/25 11:59:46;;;;;;;1.73;1.08;;;;;;;;;;6204560;28;20084;-72
2021/05/25 12:02:50;;;;;;;1.88;1.00;;;;;;;;;;6204144;28;20168;-72
2021/05/25 12:05:51;;;;;;;2.30;1.02;;;;;;;;;;6199357;28;20054;-73
2021/05/25 12:08:52;;;;;;;1.45;0.98;;;;;;;;;;6197229;28;20045;-73
2021/05/25 12:11:57;;;;;;;2.83;1.00;;;;;;;;;;6204715;28;20043;-72
2021/05/25 12:14:59;;;;;;;4.38;1.30;;;;;;;;;;6207255;28;20093;-71
2021/05/25 12:18:01;;;;;;;3.58;1.20;;;;;;;;;;6205456;28;20413;-74
2021/05/25 12:21:03;;;;;;;1.13;1.00;;;;;;;;;;6207190;28;20056;-70
2021/05/25 12:24:05;;;;;;;2.42;1.08;;;;;;;;;;6205756;28;24050;-70
2021/05/25 12:27:08;;;;;;;3.45;1.30;;;;;;;;;;6215003;28;20060;-71
2021/05/25 12:30:10;;;;;;;1.83;0.95;;;;;;;;;;6211932;28;20045;-71
2021/05/25 12:33:18;;;;;;;1.52;1.02;;;;;;;;;;6215460;28;20057;-72
2021/05/25 12:36:24;;;;;;;3.63;1.00;;;;;;;;;;6212244;28;20038;-72
2021/05/25 12:39:36;;;;;;;2.15;0.80;;;;;;;;;;6197402;28;20176;-71
2021/05/25 12:42:39;;;;;;;3.37;0.90;;;;;;;;;;6210931;28;20182;-70
2021/05/25 12:45:43;;;;;;;1.77;1.08;;;;;;;;;;6211618;28;20050;-72
2021/05/25 12:48:46;;;;;;;2.17;1.10;;;;;;;;;;6207977;28;20042;-72
2021/05/25 12:51:47;;;;;;;2.83;1.17;;;;;;;;;;6208392;28;20057;-72
2021/05/25 12:54:55;;;;;;;1.02;0.60;;;;;;;;;;6187330;28;20053;-71
2021/05/25 12:57:57;;;;;;;2.55;1.00;;;;;;;;;;6183445;28;20047;-70
2021/05/25 13:00:58;;;;;;;1.10;0.70;;;;;;;;;;6202090;28;20477;-69
2021/05/25 13:04:25;;;;;;;1.83;0.80;;;;;;;;;;6198932;28;20061;-69
2021/05/25 13:07:26;;;;;;;1.23;0.63;;;;;;;;;;6204967;28;21076;-69
2021/05/25 13:10:41;;;;;;;0.95;0.60;;;;;;;;;;6210340;28;20100;-70
2021/05/25 13:13:44;;;;;;;3.53;1.20;;;;;;;;;;6188481;28;20091;-69
2021/05/25 13:16:55;;;;;;;2.03;1.13;;;;;;;;;;6192341;28;20561;-71
2021/05/25 13:19:57;;;;;;;3.70;1.05;;;;;;;;;;6221292;28;20584;-73
2021/05/25 13:22:58;;;;;;;2.20;0.90;;;;;;;;;;6190231;28;20473;-71
2021/05/25 13:26:08;;;;;;;1.77;1.00;;;;;;;;;;6213270;28;20512;-69
2021/05/25 13:29:13;;;;;;;1.35;0.88;;;;;;;;;;6214528;28;20048;-70
2021/05/25 13:32:14;;;;;;;4.00;1.00;;;;;;;;;;6218237;28;20068;-69
2021/05/25 13:35:16;;;;;;;1.13;0.70;;;;;;;;;;6211229;28;20061;-69
2021/05/25 13:38:17;;;;;;;1.75;0.75;;;;;;;;;;6210443;28;20076;-71
2021/05/25 13:41:19;;;;;;;4.38;1.00;;;;;;;;;;6208725;28;20420;-68
2021/05/25 13:44:21;;;;;;;1.08;0.80;;;;;;;;;;6215193;28;20053;-69
2021/05/25 13:47:22;;;;;;;1.65;0.80;;;;;;;;;;6212026;28;20041;-71
2021/05/25 13:50:24;;;;;;;2.45;0.70;;;;;;;;;;6208956;28;20054;-72
2021/05/25 13:53:25;;;;;;;3.53;0.85;;;;;;;;;;6210283;28;20054;-70
2021/05/25 13:56:30;;;;;;;2.28;0.77;;;;;;;;;;6210701;28;20042;-70
2021/05/25 13:59:35;;;;;;;1.17;0.70;;;;;;;;;;6212998;28;20364;-71
2021/05/25 14:02:36;;;;;;;1.75;0.60;;;;;;;;;;6201853;28;20056;-71
2021/05/25 14:05:38;;;;;;;2.35;0.88;;;;;;;;;;6199186;28;20101;-69
2021/05/25 14:08:40;;;;;;;1.20;0.77;;;;;;;;;;6182680;28;20454;-69
2021/05/25 14:11:41;;;;;;;2.60;0.68;;;;;;;;;;6188556;28;20054;-69
2021/05/25 14:14:42;;;;;;;1.45;0.70;;;;;;;;;;6203343;28;20056;-69
2021/05/25 14:17:43;;;;;;;1.00;0.63;;;;;;;;;;6210160;28;20056;-69
2021/05/25 14:20:45;;;;;;;3.10;0.70;;;;;;;;;;6206066;28;20034;-70
2021/05/25 14:23:46;;;;;;;7.82;0.70;;;;;;;;;;6194785;28;20150;-70
2021/05/25 14:26:47;;;;;;;1.88;0.65;;;;;;;;;;6200136;28;20185;-71
2021/05/25 14:29:49;;;;;;;1.73;0.60;;;;;;;;;;6198799;28;20050;-70
2021/05/25 14:32:50;;;;;;;1.35;0.85;;;;;;;;;;6197124;28;20073;-71
2021/05/25 14:35:52;;;;;;;1.88;0.60;;;;;;;;;;6203920;28;20053;-71
2021/05/25 14:38:53;;;;;;;3.92;0.60;;;;;;;;;;6207490;28;20038;-69
2021/05/25 14:41:54;;;;;;;1.02;0.63;;;;;;;;;;6203693;28;20050;-69
2021/05/25 14:44:55;;;;;;;2.60;0.70;;;;;;;;;;6211171;28;20054;-69
2021/05/25 14:47:56;;;;;;;7.15;0.70;;;;;;;;;;6206681;28;20040;-69
2021/05/25 14:50:59;;;;;;;1.65;0.52;;;;;;;;;;6200606;28;20084;-69
2021/05/25 14:54:00;;;;;;;0.98;0.40;;;;;;;;;;6198514;28;20050;-70
2021/05/25 14:57:09;;;;;;;3.28;0.60;;;;;;;;;;6196104;28;20045;-69
2021/05/25 15:00:12;;;;;;;3.92;0.68;;;;;;;;;;6200801;28;20149;-69
2021/05/25 15:03:16;;;;;;;;;;;;;;;;;;6198324;28;20657;-70
2021/05/25 15:06:20;;;;;;;0.50;0.40;;;;;;;;;;6205319;28;20051;-71
2021/05/25 15:09:24;;;;;;;7.85;1.00;;;;;;;;;;6212934;28;20107;-68
2021/05/25 15:12:26;;;;;;;2.03;0.32;;;;;;;;;;6207419;28;20053;-68
2021/05/25 15:15:27;;;;;;;2.10;0.57;;;;;;;;;;6211075;28;20405;-68
2021/05/25 15:18:29;;;;;;;1.95;0.70;;;;;;;;;;6213265;28;20096;-69
2021/05/25 15:21:33;;;;;;;1.50;0.50;;;;;;;;;;6210943;28;20049;-69
2021/05/25 15:24:33;;;;;;;;;;;;;;;;;;6209735;28;20053;-69
2021/05/25 15:27:35;;;;;;;2.88;0.88;;;;;;;;;;6207883;28;19929;-69
2021/05/25 15:30:37;;;;;;;0.82;0.63;;;;;;;;;;6210413;28;20113;-69
2021/05/25 15:33:40;;;;;;;0.55;0.40;;;;;;;;;;6173986;28;20213;-70
2021/05/25 15:36:42;;;;;;;0.95;0.50;;;;;;;;;;6187234;28;20540;-69
2021/05/25 15:39:43;;;;;;;1.38;0.60;;;;;;;;;;6187657;28;20066;-71
2021/05/25 15:42:44;;;;;;;0.70;0.47;;;;;;;;;;6185824;28;20167;-70
2021/05/25 15:45:47;;;;;;;4.30;0.70;;;;;;;;;;6186121;28;20046;-68
2021/05/25 15:48:48;;;;;;;1.93;0.53;;;;;;;;;;6175886;28;20050;-70
2021/05/25 15:51:50;;;;;;;1.90;0.50;;;;;;;;;;6184110;28;20508;-69
2021/05/25 15:54:51;;;;;;;0.70;0.40;;;;;;;;;;6203565;28;20079;-69
2021/05/25 15:57:54;;;;;;;0.60;0.40;;;;;;;;;;6207872;28;20138;-69
2021/05/25 16:00:55;;;;;;;0.85;0.30;;;;;;;;;;6213685;28;20046;-69
2021/05/25 16:03:56;;;;;;;1.33;0.70;;;;;;;;;;6211395;28;20125;-69
2021/05/25 16:06:58;;;;;;;0.80;0.50;;;;;;;;;;6211813;28;20099;-68
2021/05/25 16:09:59;;;;;;;2.22;0.75;;;;;;;;;;6213541;28;20134;-69
2021/05/25 16:13:00;;;;;;;2.15;0.40;;;;;;;;;;6208744;28;20165;-69
2021/05/25 16:16:01;;;;;;;0.85;0.55;;;;;;;;;;6216067;28;20730;-69
2021/05/25 16:19:03;;;;;;;0.85;0.50;;;;;;;;;;6214471;28;20630;-69
2021/05/25 16:22:10;;;;;;;1.38;0.65;;;;;;;;;;6213151;28;20038;-69
2021/05/25 16:25:13;;;;;;;1.08;0.63;;;;;;;;;;6213629;28;20050;-69
2021/05/25 16:28:14;;;;;;;0.55;0.47;;;;;;;;;;6213863;28;20046;-69
2021/05/25 16:31:16;;;;;;;0.85;0.52;;;;;;;;;;6213726;28;20180;-69
2021/05/25 16:34:17;;;;;;;1.20;0.60;;;;;;;;;;6212402;28;20054;-70
2021/05/25 16:37:19;;;;;;;1.10;0.60;;;;;;;;;;6212005;28;20057;-69
2021/05/25 16:40:20;;;;;;;6.18;0.90;;;;;;;;;;6213773;28;20156;-71
2021/05/25 16:43:24;;;;;;;1.13;0.57;;;;;;;;;;6210340;28;20473;-69
2021/05/25 16:46:26;;;;;;;1.10;0.57;;;;;;;;;;6210244;28;20153;-70
2021/05/25 16:49:27;;;;;;;1.50;0.60;;;;;;;;;;6211336;28;20516;-69
2021/05/25 16:52:30;;;;;;;0.75;0.40;;;;;;;;;;6213014;28;20885;-69
2021/05/25 16:55:31;;;;;;;1.02;0.40;;;;;;;;;;6214133;28;20374;-69
2021/05/25 16:58:32;;;;;;;1.15;0.40;;;;;;;;;;6213030;28;20136;-69
2021/05/25 17:01:35;;;;;;;1.42;0.50;;;;;;;;;;6210985;28;20172;-69
2021/05/25 17:08:25;;;;;;;1.45;0.63;;;;;;;;;;6158356;28;20546;-70
2021/05/25 17:11:35;;;;;;;1.25;0.45;;;;;;;;;;6185290;28;20047;-69
2021/05/25 17:17:53;;;;;;;2.35;0.73;;;;;;;;;;6191686;28;20114;-69
2021/05/25 17:20:54;;;;;;;0.93;0.30;;;;;;;;;;6197268;28;20128;-70
2021/05/25 17:23:57;;;;;;;2.97;0.60;;;;;;;;;;6176435;28;20425;-69
2021/05/25 17:26:58;;;;;;;1.00;0.60;;;;;;;;;;6183469;28;20057;-69
2021/05/25 17:29:59;;;;;;;3.78;2.28;;;;;;;;;;6193968;28;20186;-70
2021/05/25 17:33:01;;;;;;;2.28;1.42;;;;;;;;;;6191762;28;20140;-70
2021/05/25 17:36:02;;;;;;;2.65;0.80;;;;;;;;;;6203799;28;20144;-71
2021/05/25 17:39:05;;;;;;;1.67;0.50;;;;;;;;;;6208175;28;20783;-70
2021/05/25 17:42:06;;;;;;;3.40;0.52;;;;;;;;;;6209884;28;20141;-69
2021/05/25 17:45:08;;;;;;;0.65;0.50;;;;;;;;;;6200781;28;20090;-68
2021/05/25 17:48:10;;;;;;;1.15;0.40;;;;;;;;;;6212969;28;20137;-69
2021/05/25 17:51:11;;;;;;;1.02;0.60;;;;;;;;;;6199590;28;20440;-69
2021/05/25 17:54:13;;;;;;;2.75;0.75;;;;;;;;;;6196367;28;20050;-69
2021/05/25 17:57:14;;;;;;;1.30;0.73;;;;;;;;;;6206699;28;20046;-69
2021/05/25 18:00:16;;;;;;;0.95;0.70;;;;;;;;;;6207732;28;20050;-69
2021/05/25 18:03:17;;;;;;;1.55;0.70;;;;;;;;;;6200616;28;20474;-68
2021/05/25 18:06:22;;;;;;;1.40;0.63;;;;;;;;;;6208666;28;20058;-68
2021/05/25 18:09:24;;;;;;;1.17;0.43;;;;;;;;;;6201013;28;20116;-71